Terminal Aerodrome Forecast
Issued by NWS Wakefield, VA

Home | Current Version | Previous Version | Text Only | Print | Product List | Glossary On
Versions: 1 2 3 4 5 6 7 8 9 10 11 12 13 14 15 16 17 18 19 20 21 22 23 24 25 26 27 28 29 30
000
FTUS41 KAKQ 280127 AAA
TAFRIC
TAF AMD
KRIC 280127Z 2801/2824 19007KT P6SM SCT070 BKN150
     FM280300 19006KT P6SM VCSH BKN100
     FM280600 22006KT P6SM VCSH BKN045
     FM280900 20004KT P6SM VCSH BKN030
     FM281200 24004KT P6SM BKN015
     FM281500 VRB03KT P6SM BKN035
     FM281800 20005KT P6SM SCT080=

USA.gov is the U.S. government's official web portal to all federal, state and local government web resources and services.